Time;durP1;ratioP1;P1;durP2;ratioP2;P2;SDS_P1;SDS_P2;PMS_P1;PMS_P2;Temp;Humidity;BMP_temperature;BMP_pressure;BME280_temperature;BME280_humidity;BME280_pressure;Samples;Min_cycle;Max_cycle;Signal;HPM_P1;HPM_P2
2021/12/12 00:01:02;;;;;;;1.02;0.30;;;26.00;92.10;;;;;;5125842;27;20493;-78
2021/12/12 00:03:52;;;;;;;1.02;0.28;;;25.50;91.80;;;;;;5127776;27;20023;-78
2021/12/12 00:06:22;;;;;;;2.55;0.77;;;25.70;92.80;;;;;;5124639;27;20034;-78
2021/12/12 00:08:56;;;;;;;3.67;0.45;;;26.10;91.70;;;;;;5122883;27;20023;-78
2021/12/12 00:11:28;;;;;;;2.90;1.08;;;26.70;92.90;;;;;;5122672;27;20023;-76
2021/12/12 00:14:06;;;;;;;0.47;0.20;;;27.10;91.30;;;;;;5118876;27;20024;-77
2021/12/12 00:16:34;;;;;;;2.97;0.80;;;27.60;91.20;;;;;;5120149;27;20486;-79
2021/12/12 00:19:01;;;;;;;2.85;0.40;;;27.50;89.50;;;;;;5123957;27;20486;-79
2021/12/12 00:21:30;;;;;;;2.08;0.70;;;26.80;89.20;;;;;;5124421;27;20023;-78
2021/12/12 00:23:58;;;;;;;1.85;0.40;;;26.10;90.70;;;;;;5123295;27;20023;-77
2021/12/12 00:26:26;;;;;;;1.42;0.32;;;25.50;90.90;;;;;;5124364;27;20123;-78
2021/12/12 00:28:54;;;;;;;1.67;0.20;;;25.00;91.40;;;;;;5124460;27;20031;-78
2021/12/12 00:31:23;;;;;;;1.50;0.20;;;24.70;91.70;;;;;;5119427;27;20097;-78
2021/12/12 00:33:54;;;;;;;1.00;0.50;;;24.70;92.30;;;;;;5127201;27;20079;-76
2021/12/12 00:36:24;;;;;;;2.15;0.22;;;24.70;92.70;;;;;;5125326;27;20032;-77
2021/12/12 00:38:58;;;;;;;5.03;0.30;;;24.80;92.30;;;;;;5125331;27;20114;-80
2021/12/12 00:41:41;;;;;;;2.00;0.38;;;24.70;92.00;;;;;;5120001;27;20027;-76
2021/12/12 00:44:12;;;;;;;3.88;0.50;;;24.60;91.90;;;;;;5119504;27;21463;-76
2021/12/12 00:46:40;;;;;;;3.42;0.28;;;25.30;92.60;;;;;;5127743;27;20489;-77
2021/12/12 00:49:08;;;;;;;3.55;0.40;;;25.90;91.60;;;;;;5131894;27;20123;-79
2021/12/12 00:51:38;;;;;;;1.65;0.30;;;26.60;90.70;;;;;;5133184;27;20035;-79
2021/12/12 00:54:07;;;;;;;1.98;0.20;;;27.10;89.80;;;;;;5131424;27;20027;-76
2021/12/12 00:56:35;;;;;;;0.93;0.43;;;27.30;87.60;;;;;;5124413;27;20087;-79
2021/12/12 00:59:04;;;;;;;1.40;0.30;;;27.30;88.60;;;;;;5129659;27;20024;-80
2021/12/12 01:01:37;;;;;;;1.20;0.30;;;27.50;87.90;;;;;;5130064;27;20030;-80
2021/12/12 01:04:14;;;;;;;1.10;0.20;;;27.30;87.90;;;;;;5133277;27;20427;-79
2021/12/12 01:06:43;;;;;;;1.23;0.20;;;26.50;89.70;;;;;;5129178;27;20442;-77
2021/12/12 01:09:20;;;;;;;1.50;0.65;;;26.10;89.80;;;;;;5131876;27;20438;-77
2021/12/12 01:11:52;;;;;;;1.80;0.30;;;25.70;90.80;;;;;;5129552;27;20204;-79
2021/12/12 01:14:33;;;;;;;1.42;0.20;;;26.00;90.50;;;;;;5130844;27;20027;-75
2021/12/12 01:17:05;;;;;;;4.43;0.40;;;26.70;91.50;;;;;;5128406;27;20027;-76
2021/12/12 01:20:02;;;;;;;1.70;0.40;;;27.50;91.50;;;;;;5125693;27;21031;-75
2021/12/12 01:22:35;;;;;;;2.45;0.30;;;27.60;88.60;;;;;;5119278;27;20536;-77
2021/12/12 01:25:16;;;;;;;2.17;0.65;;;28.00;88.30;;;;;;5124731;27;20023;-81
2021/12/12 01:27:43;;;;;;;2.75;0.38;;;28.20;90.10;;;;;;5126704;27;20039;-79
2021/12/12 01:30:13;;;;;;;1.98;0.35;;;28.40;87.40;;;;;;5123935;27;20023;-79
2021/12/12 01:32:42;;;;;;;4.35;0.32;;;28.60;85.10;;;;;;5130724;27;20114;-81
2021/12/12 01:35:18;;;;;;;1.70;0.15;;;28.40;84.30;;;;;;5124394;27;20023;-75
2021/12/12 01:38:51;;;;;;;0.93;0.25;;;28.00;83.00;;;;;;5128903;27;20042;-75
2021/12/12 01:40:39;;;;;;;0.75;0.40;;;27.30;82.60;;;;;;5130721;27;20497;-81
2021/12/12 01:43:20;;;;;;;2.42;0.30;;;27.70;86.70;;;;;;5126697;27;20019;-78
2021/12/12 01:45:53;;;;;;;1.02;0.30;;;28.10;84.80;;;;;;5124205;27;20510;-77
2021/12/12 01:48:40;;;;;;;0.80;0.30;;;27.90;84.00;;;;;;5127732;27;20393;-76
2021/12/12 01:51:10;;;;;;;0.40;0.20;;;27.30;84.50;;;;;;5118567;27;20102;-78
2021/12/12 01:53:45;;;;;;;0.98;0.25;;;26.90;83.20;;;;;;5126578;27;20157;-79
2021/12/12 01:56:19;;;;;;;1.08;0.30;;;26.50;83.70;;;;;;5122609;27;20027;-77
2021/12/12 01:58:51;;;;;;;0.47;0.30;;;26.60;84.30;;;;;;5122907;27;20023;-80
2021/12/12 02:01:23;;;;;;;1.35;0.57;;;27.40;84.80;;;;;;5121855;27;20537;-80
2021/12/12 02:04:00;;;;;;;1.25;0.40;;;27.50;84.80;;;;;;5117692;27;20431;-84
2021/12/12 02:06:28;;;;;;;1.65;0.20;;;27.20;84.10;;;;;;5124982;27;20019;-79
2021/12/12 02:08:56;;;;;;;0.85;0.40;;;27.00;84.40;;;;;;5116352;27;20039;-78
2021/12/12 02:11:29;;;;;;;1.63;0.20;;;26.80;83.80;;;;;;5120762;28;20475;-82
2021/12/12 02:14:02;;;;;;;1.75;0.20;;;27.60;84.10;;;;;;5122482;28;20058;-84
2021/12/12 02:16:30;;;;;;;0.63;0.15;;;28.40;83.60;;;;;;5124384;28;20471;-79
2021/12/12 02:18:59;;;;;;;1.20;0.10;;;29.20;83.50;;;;;;5125902;28;20034;-80
2021/12/12 02:21:52;;;;;;;0.55;0.15;;;29.80;81.70;;;;;;5120989;28;20027;-80
2021/12/12 02:35:06;;;;;;;2.17;0.20;;;29.70;76.50;;;;;;5121218;28;20041;-80
2021/12/12 02:35:44;;;;;;;1.83;0.30;;;27.60;82.40;;;;;;5129653;28;20088;-77
2021/12/12 02:38:22;;;;;;;0.90;0.20;;;27.80;83.10;;;;;;5127113;28;20051;-78
2021/12/12 02:40:55;;;;;;;0.57;0.10;;;27.70;81.70;;;;;;5119398;28;20030;-84
2021/12/12 02:43:26;;;;;;;1.35;0.45;;;27.60;79.60;;;;;;5124381;28;20394;-78
2021/12/12 02:45:57;;;;;;;1.40;0.47;;;27.90;78.40;;;;;;5123631;28;20078;-77
2021/12/12 02:48:41;;;;;;;0.85;0.20;;;28.50;79.90;;;;;;5124105;28;20023;-77
2021/12/12 02:51:12;;;;;;;1.00;0.30;;;28.00;78.70;;;;;;5124043;28;20565;-78
2021/12/12 02:53:52;;;;;;;2.95;0.82;;;27.10;79.80;;;;;;5119637;28;20050;-78
2021/12/12 02:56:38;;;;;;;1.42;0.40;;;26.40;81.90;;;;;;5122176;28;20031;-79
2021/12/12 02:59:11;;;;;;;3.00;0.52;;;26.00;82.70;;;;;;5120954;28;20019;-78
2021/12/12 03:01:44;;;;;;;1.52;0.55;;;25.80;83.40;;;;;;5122645;28;20020;-78
2021/12/12 03:04:12;;;;;;;1.90;0.40;;;25.60;83.20;;;;;;5124292;28;20020;-78
2021/12/12 03:06:42;;;;;;;3.20;0.63;;;25.50;86.10;;;;;;5123411;28;20110;-78
2021/12/12 03:09:23;;;;;;;4.10;0.60;;;26.00;84.80;;;;;;5123029;28;20537;-79
2021/12/12 03:11:58;;;;;;;5.78;0.82;;;26.50;82.30;;;;;;5121283;28;20190;-78
2021/12/12 03:14:32;;;;;;;0.88;0.30;;;27.00;81.80;;;;;;5119637;28;20030;-77
2021/12/12 03:17:06;;;;;;;3.55;0.85;;;26.70;82.20;;;;;;5125425;28;20031;-75
2021/12/12 03:19:34;;;;;;;2.10;0.45;;;26.90;82.20;;;;;;5125254;27;20126;-77
2021/12/12 03:22:03;;;;;;;2.60;0.60;;;26.70;81.90;;;;;;5125303;27;20368;-76
2021/12/12 03:24:30;;;;;;;2.38;0.50;;;26.90;83.00;;;;;;5122705;27;20081;-78
2021/12/12 03:27:02;;;;;;;6.60;1.88;;;27.20;82.20;;;;;;5122599;27;20036;-75
2021/12/12 03:29:29;;;;;;;1.10;0.32;;;27.50;81.00;;;;;;5126479;27;20476;-75
2021/12/12 03:32:08;;;;;;;1.90;0.50;;;27.70;80.30;;;;;;5128239;27;20027;-75
2021/12/12 03:34:40;;;;;;;1.17;0.30;;;27.60;80.40;;;;;;5126374;27;20186;-79
2021/12/12 03:37:10;;;;;;;2.15;0.38;;;27.60;81.30;;;;;;5130071;27;20132;-81
2021/12/12 03:39:42;;;;;;;4.40;0.30;;;27.80;79.60;;;;;;5113442;27;20462;-79
2021/12/12 03:42:13;;;;;;;2.85;0.20;;;27.90;80.40;;;;;;5122672;27;20032;-76
2021/12/12 03:44:41;;;;;;;2.55;0.45;;;28.20;80.40;;;;;;5130065;27;20031;-83
2021/12/12 03:47:26;;;;;;;6.97;0.80;;;28.50;79.50;;;;;;5129628;27;20039;-77
2021/12/12 03:49:55;;;;;;;3.72;0.38;;;28.40;80.00;;;;;;5128807;27;20050;-77
2021/12/12 03:52:23;;;;;;;5.18;0.45;;;28.40;79.90;;;;;;5126352;27;20030;-79
2021/12/12 03:54:52;;;;;;;3.10;0.43;;;28.40;79.60;;;;;;5133335;27;20031;-78
2021/12/12 03:57:21;;;;;;;2.40;0.57;;;28.10;80.10;;;;;;5131959;27;20027;-74
2021/12/12 03:59:49;;;;;;;1.20;0.30;;;27.70;81.50;;;;;;5131620;27;20393;-76
2021/12/12 04:02:17;;;;;;;2.95;0.50;;;27.40;80.90;;;;;;5127827;27;20042;-78
2021/12/12 04:04:46;;;;;;;3.10;0.55;;;27.30;80.70;;;;;;5122656;27;20019;-78
2021/12/12 04:07:20;;;;;;;5.22;0.75;;;27.50;83.50;;;;;;5131412;27;20061;-77
2021/12/12 04:09:48;;;;;;;3.13;0.57;;;27.60;81.90;;;;;;5134072;27;20126;-75
2021/12/12 04:12:17;;;;;;;2.45;1.02;;;28.00;82.80;;;;;;5130961;27;20092;-78
2021/12/12 04:14:46;;;;;;;4.80;0.77;;;28.00;81.80;;;;;;5129427;27;20475;-78
2021/12/12 04:17:18;;;;;;;2.20;0.75;;;28.10;81.20;;;;;;5129245;27;20019;-79
2021/12/12 04:19:48;;;;;;;3.35;0.55;;;28.10;83.00;;;;;;5127917;27;20031;-78
2021/12/12 04:22:16;;;;;;;3.45;0.57;;;27.90;82.20;;;;;;5125857;27;20509;-79
2021/12/12 04:24:50;;;;;;;3.28;0.82;;;27.00;83.50;;;;;;5125534;27;20038;-80
2021/12/12 04:27:18;;;;;;;4.35;0.70;;;26.50;84.70;;;;;;5124835;27;20039;-78
2021/12/12 04:29:51;;;;;;;6.45;0.55;;;26.40;86.20;;;;;;5131248;27;20027;-77
2021/12/12 04:32:25;;;;;;;4.05;0.90;;;26.30;87.50;;;;;;5123963;27;20032;-79
2021/12/12 04:35:13;;;;;;;3.72;0.80;;;26.30;86.50;;;;;;5113582;28;20026;-81
2021/12/12 04:37:41;;;;;;;2.35;0.68;;;26.40;84.30;;;;;;5127538;27;20023;-78
2021/12/12 04:40:13;;;;;;;2.45;0.75;;;26.50;85.60;;;;;;5127224;27;20054;-79
2021/12/12 04:42:42;;;;;;;2.97;0.93;;;26.50;84.50;;;;;;5129195;27;20605;-80
2021/12/12 04:45:18;;;;;;;5.85;1.13;;;26.70;85.00;;;;;;5132435;27;20042;-78
2021/12/12 04:51:13;;;;;;;3.58;0.65;;;25.90;85.50;;;;;;5117489;27;20034;-76
2021/12/12 04:54:04;;;;;;;4.07;0.88;;;25.90;86.00;;;;;;5126479;27;20450;-79
2021/12/12 04:57:02;;;;;;;2.78;0.50;;;26.10;86.30;;;;;;5124256;27;20023;-78
2021/12/12 04:59:49;;;;;;;5.18;0.52;;;26.10;85.70;;;;;;5121570;27;20063;-78
2021/12/12 05:02:26;;;;;;;6.78;0.60;;;26.20;86.70;;;;;;5123578;27;20478;-76
2021/12/12 05:05:02;;;;;;;6.60;1.20;;;26.30;85.40;;;;;;5122595;27;20032;-77
2021/12/12 05:07:43;;;;;;;8.20;0.85;;;26.10;85.90;;;;;;5116570;27;20490;-77
2021/12/12 05:10:19;;;;;;;2.65;0.80;;;26.10;87.70;;;;;;5123994;27;20070;-77
2021/12/12 05:13:17;;;;;;;7.10;1.40;;;26.30;86.90;;;;;;5128579;27;20487;-78
2021/12/12 05:15:58;;;;;;;3.83;0.50;;;26.20;86.40;;;;;;5120988;27;20040;-78
2021/12/12 05:18:35;;;;;;;5.60;0.50;;;26.20;86.10;;;;;;5126748;27;20047;-77
2021/12/12 05:21:08;;;;;;;3.13;0.70;;;25.90;85.90;;;;;;5129414;27;20106;-76
2021/12/12 05:23:38;;;;;;;5.07;1.05;;;25.70;86.60;;;;;;5125065;27;20478;-76
2021/12/12 05:26:11;;;;;;;3.40;0.95;;;25.70;87.50;;;;;;5122870;27;20039;-77
2021/12/12 05:28:59;;;;;;;5.53;0.77;;;25.80;86.20;;;;;;5117213;27;20031;-76
2021/12/12 05:31:27;;;;;;;2.22;0.98;;;25.90;85.40;;;;;;5122557;27;20026;-77
2021/12/12 05:33:55;;;;;;;4.30;1.17;;;25.90;85.60;;;;;;5126541;27;20079;-76
2021/12/12 05:36:24;;;;;;;4.55;1.33;;;25.80;85.60;;;;;;5127742;27;20027;-76
2021/12/12 05:38:53;;;;;;;3.42;0.60;;;25.70;85.80;;;;;;5116100;27;20052;-75
2021/12/12 05:41:21;;;;;;;4.95;0.95;;;25.70;86.10;;;;;;5125877;27;20023;-76
2021/12/12 05:43:52;;;;;;;3.28;1.13;;;25.70;86.90;;;;;;5130164;27;20485;-76
2021/12/12 05:46:20;;;;;;;5.35;0.70;;;25.80;85.30;;;;;;5129619;27;20517;-77
2021/12/12 05:48:49;;;;;;;3.30;1.02;;;25.80;86.90;;;;;;5126291;27;20031;-75
2021/12/12 05:51:17;;;;;;;5.53;0.60;;;25.70;86.50;;;;;;5125502;27;20058;-75
2021/12/12 05:53:48;;;;;;;5.28;1.40;;;25.60;86.20;;;;;;5126153;27;20423;-77
2021/12/12 05:56:16;;;;;;;6.05;0.85;;;25.60;86.30;;;;;;5125565;27;20111;-76
2021/12/12 05:58:44;;;;;;;6.10;0.82;;;25.50;86.40;;;;;;5111298;27;20110;-76
2021/12/12 06:01:12;;;;;;;10.48;1.77;;;25.50;86.80;;;;;;5114633;27;20106;-77
2021/12/12 06:03:42;;;;;;;5.63;1.05;;;25.40;86.20;;;;;;5111769;28;20027;-78
2021/12/12 06:06:16;;;;;;;3.85;0.70;;;25.40;87.00;;;;;;5117694;27;20478;-75
2021/12/12 06:08:45;;;;;;;1.92;0.52;;;25.50;86.30;;;;;;5129358;27;20790;-76
2021/12/12 06:11:15;;;;;;;2.50;0.93;;;25.40;86.50;;;;;;5130414;27;20110;-76
2021/12/12 06:13:43;;;;;;;2.58;0.57;;;25.30;87.00;;;;;;5127077;27;20027;-74
2021/12/12 06:16:19;;;;;;;5.32;1.08;;;25.20;87.70;;;;;;5126556;27;20165;-76
2021/12/12 06:18:53;;;;;;;5.72;0.85;;;25.00;87.40;;;;;;5122628;27;20034;-77
2021/12/12 06:21:21;;;;;;;8.68;0.70;;;24.60;87.50;;;;;;5117684;28;20023;-78
2021/12/12 06:23:49;;;;;;;3.35;0.57;;;24.30;88.30;;;;;;5131353;28;20053;-77
2021/12/12 06:26:19;;;;;;;2.47;0.65;;;24.10;88.30;;;;;;5130825;28;20509;-77
2021/12/12 06:28:47;;;;;;;2.83;1.23;;;24.20;88.30;;;;;;5122773;28;20401;-77
2021/12/12 06:31:15;;;;;;;1.63;0.68;;;24.30;87.70;;;;;;5120141;28;20027;-77
2021/12/12 06:33:42;;;;;;;4.90;0.88;;;24.30;88.60;;;;;;5120496;28;20106;-76
2021/12/12 06:36:13;;;;;;;7.10;1.10;;;24.30;88.40;;;;;;5127378;28;20026;-77
2021/12/12 06:38:49;;;;;;;3.20;0.70;;;24.20;87.80;;;;;;5125050;28;20102;-78
2021/12/12 06:41:18;;;;;;;6.50;0.93;;;24.00;88.30;;;;;;5123100;28;20121;-76
2021/12/12 06:43:47;;;;;;;3.63;0.77;;;23.80;88.80;;;;;;5119689;28;20114;-79
2021/12/12 06:46:15;;;;;;;3.88;0.63;;;23.60;89.70;;;;;;5118881;28;20027;-76
2021/12/12 06:48:43;;;;;;;2.50;0.60;;;23.40;89.50;;;;;;5116559;28;20023;-79
2021/12/12 06:51:12;;;;;;;5.38;0.93;;;23.30;89.70;;;;;;5107113;28;20034;-80
2021/12/12 06:53:44;;;;;;;8.70;1.67;;;23.30;90.00;;;;;;5117558;27;20019;-80
2021/12/12 06:56:14;;;;;;;8.55;1.10;;;23.30;90.00;;;;;;5130194;27;20029;-79
2021/12/12 06:58:43;;;;;;;11.43;3.38;;;23.20;90.00;;;;;;5122108;27;20382;-79
2021/12/12 07:01:16;;;;;;;7.60;1.90;;;23.10;90.30;;;;;;5130317;27;20393;-78
2021/12/12 07:03:44;;;;;;;3.58;0.93;;;22.90;90.20;;;;;;5121067;27;20466;-78
2021/12/12 07:06:13;;;;;;;5.78;1.05;;;22.90;90.50;;;;;;5127460;27;20042;-77
2021/12/12 07:08:41;;;;;;;7.53;1.15;;;23.00;90.50;;;;;;5131136;27;20027;-77
2021/12/12 07:11:08;;;;;;;4.50;0.80;;;23.00;90.50;;;;;;5127177;27;20530;-79
2021/12/12 07:13:37;;;;;;;7.47;1.80;;;22.90;90.40;;;;;;5119022;27;20118;-75
2021/12/12 07:16:07;;;;;;;5.30;1.92;;;22.90;90.20;;;;;;5125910;27;20038;-76
2021/12/12 07:18:36;;;;;;;7.28;1.00;;;22.80;90.20;;;;;;5133307;27;20015;-76
2021/12/12 07:21:10;;;;;;;4.15;0.77;;;22.60;90.60;;;;;;5128427;27;20114;-77
2021/12/12 07:23:40;;;;;;;3.83;0.73;;;22.50;90.40;;;;;;5121992;27;20418;-75
2021/12/12 07:26:11;;;;;;;4.45;0.70;;;22.40;90.50;;;;;;5127293;27;20070;-75
2021/12/12 07:28:39;;;;;;;3.58;0.77;;;22.20;90.50;;;;;;5118535;27;20028;-75
2021/12/12 07:31:22;;;;;;;1.73;0.55;;;22.10;90.50;;;;;;5126021;27;20059;-78
2021/12/12 07:33:53;;;;;;;7.65;1.52;;;22.20;90.50;;;;;;5135289;27;20539;-81
2021/12/12 07:36:22;;;;;;;4.90;1.17;;;22.20;90.30;;;;;;5131194;27;20111;-75
2021/12/12 07:38:55;;;;;;;3.72;1.60;;;22.30;90.30;;;;;;5121924;27;20445;-76
2021/12/12 07:41:26;;;;;;;2.47;0.63;;;22.30;90.50;;;;;;5131003;27;20502;-76
2021/12/12 07:43:55;;;;;;;3.22;0.70;;;22.20;90.30;;;;;;5132475;27;20550;-77
2021/12/12 07:46:24;;;;;;;2.95;1.75;;;22.10;90.40;;;;;;5132200;27;20031;-78
2021/12/12 07:48:53;;;;;;;3.10;0.50;;;21.90;90.50;;;;;;5130043;27;20035;-77
2021/12/12 07:51:23;;;;;;;6.68;0.88;;;21.90;90.70;;;;;;5124310;27;20022;-76
2021/12/12 07:53:54;;;;;;;7.53;0.60;;;21.80;90.70;;;;;;5132189;27;20444;-76
2021/12/12 07:56:23;;;;;;;5.30;0.80;;;21.80;90.70;;;;;;5127669;27;20031;-76
2021/12/12 07:58:51;;;;;;;4.97;0.70;;;21.80;90.70;;;;;;5120872;27;20359;-78
2021/12/12 08:01:19;;;;;;;7.65;1.10;;;21.70;90.90;;;;;;5128814;27;20019;-76
2021/12/12 08:03:47;;;;;;;3.60;0.63;;;21.60;91.20;;;;;;5130421;27;20030;-76
2021/12/12 08:06:15;;;;;;;5.45;0.70;;;21.50;91.20;;;;;;5128016;27;20034;-75
2021/12/12 08:08:44;;;;;;;9.20;1.50;;;21.40;91.40;;;;;;5131567;27;20042;-77
2021/12/12 08:11:15;;;;;;;4.82;0.85;;;21.30;91.50;;;;;;5128169;27;20076;-75
2021/12/12 08:13:43;;;;;;;4.25;0.73;;;21.30;91.50;;;;;;5129056;27;20485;-79
2021/12/12 08:16:10;;;;;;;9.90;1.08;;;21.30;91.50;;;;;;5128704;27;20019;-76
2021/12/12 08:18:43;;;;;;;10.13;1.30;;;21.30;91.50;;;;;;5128716;27;20049;-77
2021/12/12 08:21:12;;;;;;;3.72;0.90;;;21.30;91.60;;;;;;5125675;27;20056;-77
2021/12/12 08:23:41;;;;;;;9.65;1.67;;;21.30;91.70;;;;;;5132126;27;20034;-78
2021/12/12 08:26:10;;;;;;;3.95;1.00;;;21.10;91.90;;;;;;5129555;27;20034;-77
2021/12/12 08:28:38;;;;;;;1.55;0.43;;;21.00;92.00;;;;;;5127574;27;20594;-76
2021/12/12 08:31:07;;;;;;;1.92;0.40;;;21.00;92.10;;;;;;5120821;27;20038;-77
2021/12/12 08:33:35;;;;;;;3.30;0.40;;;20.90;92.10;;;;;;5125377;27;20051;-76
2021/12/12 08:36:03;;;;;;;5.75;0.93;;;20.70;92.50;;;;;;5131994;27;20055;-74
2021/12/12 08:38:31;;;;;;;4.20;0.82;;;20.70;92.50;;;;;;5128879;27;20035;-78
2021/12/12 08:41:03;;;;;;;4.07;0.70;;;20.60;92.40;;;;;;5127469;27;20382;-75
2021/12/12 08:43:31;;;;;;;6.07;0.60;;;20.60;92.40;;;;;;5129535;27;20038;-76
2021/12/12 08:46:09;;;;;;;3.20;0.68;;;20.60;92.50;;;;;;5128279;27;20094;-76
2021/12/12 08:48:40;;;;;;;2.13;1.35;;;20.60;92.60;;;;;;5121331;27;20394;-78
2021/12/12 08:51:21;;;;;;;5.88;0.60;;;20.50;92.70;;;;;;5124145;27;20110;-77
2021/12/12 08:53:51;;;;;;;2.70;0.57;;;20.30;93.00;;;;;;5127560;27;20031;-76
2021/12/12 08:56:31;;;;;;;6.22;0.60;;;20.20;93.10;;;;;;5129381;27;20095;-80
2021/12/12 08:59:00;;;;;;;5.10;0.50;;;20.10;93.20;;;;;;5125379;27;20026;-75
2021/12/12 09:01:28;;;;;;;5.25;0.80;;;20.10;93.40;;;;;;5123078;27;20156;-75
2021/12/12 09:04:01;;;;;;;6.22;1.60;;;20.10;93.60;;;;;;5120347;27;20423;-75
2021/12/12 09:06:44;;;;;;;1.92;0.73;;;20.00;93.80;;;;;;5127911;27;20035;-76
2021/12/12 09:09:21;;;;;;;3.65;0.45;;;20.00;93.80;;;;;;5129170;27;20539;-74
2021/12/12 09:12:05;;;;;;;5.10;0.50;;;19.90;93.70;;;;;;5123974;27;20031;-76
2021/12/12 09:14:37;;;;;;;5.05;0.75;;;19.90;93.70;;;;;;5117392;27;20020;-75
2021/12/12 09:17:19;;;;;;;4.93;1.23;;;19.70;93.30;;;;;;5122468;27;20079;-75
2021/12/12 09:19:57;;;;;;;4.57;1.02;;;19.60;93.30;;;;;;5119469;27;20027;-75
2021/12/12 09:22:40;;;;;;;5.38;0.65;;;19.60;93.50;;;;;;5127210;27;20024;-74
2021/12/12 09:25:35;;;;;;;7.82;1.08;;;19.60;93.50;;;;;;5118144;27;20110;-75
2021/12/12 09:28:08;;;;;;;5.22;1.38;;;19.60;93.60;;;;;;5117822;27;20040;-76
2021/12/12 09:30:37;;;;;;;3.78;0.50;;;19.60;93.80;;;;;;5123336;27;20038;-76
2021/12/12 09:33:39;;;;;;;8.27;1.70;;;19.60;93.60;;;;;;5123967;27;20031;-75
2021/12/12 09:36:34;;;;;;;3.22;0.60;;;19.60;93.70;;;;;;5071448;27;20431;-76
2021/12/12 09:39:24;;;;;;;6.97;0.93;;;19.50;93.90;;;;;;5113567;27;20067;-77
2021/12/12 09:42:25;;;;;;;5.53;0.82;;;19.50;93.90;;;;;;5116639;27;20036;-73
2021/12/12 09:45:17;;;;;;;2.15;0.57;;;19.50;94.10;;;;;;5126202;27;20127;-77
2021/12/12 09:51:14;;;;;;;3.55;1.00;;;19.40;94.20;;;;;;5118565;27;20042;-77
2021/12/12 09:51:20;;;;;;;2.65;0.80;;;19.50;94.30;;;;;;5118682;27;20023;-80
2021/12/12 09:54:10;;;;;;;5.15;0.50;;;19.50;94.60;;;;;;5129722;27;20019;-78
2021/12/12 09:57:01;;;;;;;4.15;0.60;;;19.50;94.60;;;;;;5127323;27;20018;-82
2021/12/12 09:59:56;;;;;;;5.55;0.63;;;19.40;95.00;;;;;;5110683;27;20019;-80
2021/12/12 10:02:45;;;;;;;3.00;0.50;;;19.30;95.30;;;;;;5123992;27;20023;-75
2021/12/12 10:05:25;;;;;;;1.67;0.63;;;19.20;95.50;;;;;;5121223;27;20027;-77
2021/12/12 10:08:10;;;;;;;1.95;0.50;;;19.10;95.80;;;;;;5128202;27;20486;-76
2021/12/12 10:10:51;;;;;;;5.22;1.13;;;19.00;96.00;;;;;;5123179;27;20501;-79
2021/12/12 10:13:22;;;;;;;6.95;0.90;;;19.00;96.10;;;;;;5123301;27;20060;-76
2021/12/12 10:16:01;;;;;;;3.10;0.90;;;19.00;96.10;;;;;;5121444;27;20028;-80
2021/12/12 10:18:44;;;;;;;6.75;1.20;;;19.00;96.30;;;;;;5128777;27;20390;-77
2021/12/12 10:21:18;;;;;;;2.95;0.73;;;19.00;96.20;;;;;;5127187;27;20015;-78
2021/12/12 10:24:00;;;;;;;4.40;0.50;;;19.00;96.00;;;;;;5125213;28;20107;-74
2021/12/12 10:26:43;;;;;;;2.33;0.50;;;19.00;95.90;;;;;;5122445;28;20031;-75
2021/12/12 10:29:27;;;;;;;3.20;0.43;;;18.90;96.20;;;;;;5128455;27;20023;-76
2021/12/12 10:32:03;;;;;;;2.10;0.57;;;18.90;95.90;;;;;;5131267;27;20023;-79
2021/12/12 10:34:43;;;;;;;5.80;0.70;;;18.90;95.90;;;;;;5133233;27;20023;-78
2021/12/12 10:37:16;;;;;;;3.33;0.40;;;18.90;95.90;;;;;;5130040;27;20028;-79
2021/12/12 10:40:07;;;;;;;1.90;0.50;;;18.90;95.90;;;;;;5118988;27;20051;-79
2021/12/12 10:42:44;;;;;;;6.93;0.85;;;18.80;95.80;;;;;;5127683;27;20042;-80
2021/12/12 10:45:17;;;;;;;4.03;0.70;;;18.80;96.10;;;;;;5134210;27;20019;-80
2021/12/12 10:47:57;;;;;;;3.92;0.40;;;18.80;96.30;;;;;;5134848;27;20042;-79
2021/12/12 10:50:49;;;;;;;3.92;0.68;;;18.80;96.50;;;;;;5120825;27;20027;-79
2021/12/12 10:53:32;;;;;;;3.40;0.40;;;18.80;96.40;;;;;;5115651;28;20039;-79
2021/12/12 10:56:27;;;;;;;5.03;0.60;;;18.80;96.40;;;;;;5132443;27;20030;-79
2021/12/12 10:59:01;;;;;;;3.00;0.60;;;18.80;96.40;;;;;;5132455;27;20570;-78
2021/12/12 11:01:31;;;;;;;3.95;0.60;;;18.70;96.30;;;;;;5124808;27;20019;-78
2021/12/12 11:04:16;;;;;;;3.67;0.55;;;18.70;96.60;;;;;;5136053;27;20106;-78
2021/12/12 11:06:52;;;;;;;4.60;1.27;;;18.70;96.70;;;;;;5133743;27;20031;-80
2021/12/12 11:09:41;;;;;;;4.18;0.85;;;18.60;96.80;;;;;;5126941;27;20031;-79
2021/12/12 11:12:26;;;;;;;8.88;1.08;;;18.60;96.90;;;;;;5129867;27;20034;-80
2021/12/12 11:14:57;;;;;;;5.25;0.50;;;18.60;97.00;;;;;;5118055;27;20027;-78
2021/12/12 11:17:33;;;;;;;6.32;0.95;;;18.60;97.10;;;;;;5128009;27;20034;-77
2021/12/12 11:20:09;;;;;;;5.82;1.23;;;18.60;97.20;;;;;;5124640;27;20035;-79
2021/12/12 11:22:52;;;;;;;5.93;0.70;;;18.60;97.40;;;;;;5130081;27;20047;-79
2021/12/12 11:25:52;;;;;;;4.65;1.10;;;18.60;97.30;;;;;;5099639;27;20024;-78
2021/12/12 11:28:24;;;;;;;2.13;0.85;;;18.60;97.30;;;;;;5134074;27;20134;-79
2021/12/12 11:31:07;;;;;;;4.68;1.65;;;18.60;97.40;;;;;;5129060;27;20066;-78
2021/12/12 11:33:36;;;;;;;5.95;0.75;;;18.50;97.60;;;;;;5123147;27;20027;-79
2021/12/12 11:36:08;;;;;;;5.97;1.00;;;18.50;97.80;;;;;;5128854;27;20803;-79
2021/12/12 11:38:51;;;;;;;4.93;0.55;;;18.50;97.90;;;;;;5134144;27;20063;-79
2021/12/12 11:41:32;;;;;;;6.25;0.98;;;18.50;97.80;;;;;;5127672;27;20019;-79
2021/12/12 11:44:44;;;;;;;6.32;0.80;;;18.50;97.80;;;;;;5135923;27;20076;-79
2021/12/12 11:47:32;;;;;;;4.75;1.02;;;18.50;98.20;;;;;;5073703;28;20049;-79
2021/12/12 11:50:22;;;;;;;3.40;0.60;;;18.50;98.30;;;;;;5125830;27;20026;-79
2021/12/12 11:53:20;;;;;;;8.25;1.95;;;18.40;98.60;;;;;;5134862;27;20027;-78
2021/12/12 11:55:55;;;;;;;4.70;1.30;;;18.40;98.70;;;;;;5125662;27;20049;-78
2021/12/12 11:58:29;;;;;;;7.32;1.20;;;18.30;99.00;;;;;;5131567;27;20092;-78
2021/12/12 12:01:28;;;;;;;7.30;0.82;;;18.20;99.10;;;;;;5132149;27;20023;-79
2021/12/12 12:04:14;;;;;;;7.35;0.90;;;18.20;99.50;;;;;;5116418;27;20119;-80
2021/12/12 12:06:59;;;;;;;2.67;0.50;;;18.20;99.60;;;;;;5117743;27;20044;-77
2021/12/12 12:09:46;;;;;;;9.63;1.20;;;18.20;99.60;;;;;;5121716;27;20031;-73
2021/12/12 12:12:18;;;;;;;;;;;18.10;99.40;;;;;;5120471;27;20325;-77
2021/12/12 12:14:57;;;;;;;3.72;0.35;;;18.10;99.70;;;;;;5129135;27;19911;-77
2021/12/12 12:17:40;;;;;;;5.25;1.30;;;18.10;99.80;;;;;;5124568;27;20028;-80
2021/12/12 12:20:32;;;;;;;3.17;0.82;;;18.10;99.80;;;;;;5124288;27;20054;-79
2021/12/12 12:23:42;;;;;;;6.65;1.48;;;18.10;99.70;;;;;;5114216;27;20502;-80
2021/12/12 12:29:22;;;;;;;2.08;0.50;;;18.00;99.80;;;;;;5125724;27;20053;-84
2021/12/12 12:32:07;;;;;;;3.28;1.25;;;18.00;99.90;;;;;;5114189;27;20088;-80
2021/12/12 12:34:59;;;;;;;6.20;1.15;;;18.00;99.90;;;;;;5130027;27;20110;-78
2021/12/12 12:38:03;;;;;;;5.50;0.63;;;18.00;99.90;;;;;;5128267;27;20011;-84
2021/12/12 12:40:51;;;;;;;7.00;1.63;;;18.00;99.90;;;;;;5122416;27;20501;-81
2021/12/12 12:43:55;;;;;;;7.38;0.90;;;18.00;99.90;;;;;;5126590;27;20019;-79
2021/12/12 12:46:50;;;;;;;3.22;0.68;;;18.00;99.90;;;;;;5107319;27;20300;-82
2021/12/12 12:49:53;;;;;;;3.83;0.60;;;18.00;99.90;;;;;;5125965;27;20494;-80
2021/12/12 12:52:57;;;;;;;2.08;1.10;;;18.00;99.90;;;;;;5123749;27;20474;-78
2021/12/12 12:55:42;;;;;;;5.38;1.02;;;18.00;99.90;;;;;;5120848;27;20370;-79
2021/12/12 12:58:18;;;;;;;4.93;0.75;;;17.90;99.90;;;;;;5117594;27;20470;-78
2021/12/12 13:00:48;;;;;;;4.40;1.08;;;17.90;99.90;;;;;;5122233;27;20038;-79
2021/12/12 13:03:40;;;;;;;4.60;1.13;;;17.90;99.90;;;;;;5112406;27;20035;-79
2021/12/12 13:06:28;;;;;;;5.47;1.23;;;17.90;99.90;;;;;;5127895;27;20124;-80
2021/12/12 13:09:15;;;;;;;2.88;0.45;;;17.80;99.90;;;;;;5117278;27;20047;-79
2021/12/12 13:12:13;;;;;;;6.47;0.82;;;17.90;99.90;;;;;;5131266;27;20022;-80
2021/12/12 13:15:19;;;;;;;10.90;1.13;;;17.90;99.90;;;;;;5124108;27;20056;-77
2021/12/12 13:18:09;;;;;;;3.55;0.82;;;17.90;99.90;;;;;;5043231;28;20450;-79
2021/12/12 13:20:48;;;;;;;3.33;0.60;;;17.80;99.90;;;;;;5046537;28;20025;-79
2021/12/12 13:23:42;;;;;;;11.50;2.15;;;17.80;99.90;;;;;;5098916;27;20032;-78
2021/12/12 13:26:23;;;;;;;3.90;0.80;;;17.90;99.90;;;;;;5127199;27;20027;-79
2021/12/12 13:29:14;;;;;;;7.57;0.80;;;17.80;99.90;;;;;;5126891;27;20545;-79
2021/12/12 13:32:06;;;;;;;6.47;1.13;;;17.80;99.90;;;;;;5121220;27;20031;-78
2021/12/12 13:35:03;;;;;;;9.52;2.13;;;17.80;99.90;;;;;;5114904;27;20034;-76
2021/12/12 13:37:38;;;;;;;3.55;0.80;;;17.70;99.90;;;;;;5125896;27;20023;-80
2021/12/12 13:40:32;;;;;;;7.85;1.38;;;17.70;99.90;;;;;;5127900;27;20035;-77
2021/12/12 13:43:06;;;;;;;7.93;2.22;;;17.70;99.90;;;;;;5128261;27;20038;-81
2021/12/12 13:45:55;;;;;;;6.60;1.13;;;17.70;99.90;;;;;;5130062;27;20027;-79
2021/12/12 13:48:27;;;;;;;4.15;0.82;;;17.70;99.90;;;;;;5131807;27;20114;-78
2021/12/12 13:51:09;;;;;;;4.90;0.90;;;17.60;99.90;;;;;;5126770;27;20027;-80